Falkville, Alabama
Current Conditions -  °F | °C
As of 6:15 PM on Friday 21 Nov 2014 (Local Time) from KCMD Reporting Station
Clear Clear  
Wind Chill: 52°   Ceiling: Unl
Heat Index: 52°   Visibility: 10mi
Dew Point: 38°   Wind: 3mph
Humidity: 59%   Direction: 120°ESE
Pressure: 30.37"   Gusts: NA
Location:  34.37°N, 86.91°W
Report Text: KCMD 220015Z AUTO 12003KT 10SM CLR 11/03 A3037 RMK AO2 T01100033
Loading
Personal Weather Stations






























Interactive Weather Map New forecast layout! Learn more

10-Day Weather Forecast

Advertisements
Track Severe Weather on mobile